CheckWX is a tool to help pilots better visualize weather data.  It is not intended as a substitute for an official pre-flight weather briefing.

23:56:47 UTC

KCMA TAF
Camarillo Airport
Camarillo, California, USA
KCMA 221738Z 2218/2318 00000KT P6SM SKC FM222200 23008KT P6SM SKC FM230300 VRB03KT P6SM SKC FM231500 05006KT P6SM SKC

Oct-22@
18:00 UTC

Oct-22 @ 18:00 UTC

Oct-22@
22:00 UTC

Oct-22 @ 22:00 UTC

KCMA 221738Z 2218/2318 00000KT P6SM SKC

Expired

Cloud Levels
  • Clear skies

Oct-22@
22:00 UTC

Oct-22 @ 22:00 UTC

Oct-23@
03:00 UTC

Oct-23 @ 03:00 UTC

FM222200 23008KT P6SM SKC

From

From Standard forecast or significant change

Wind
  • 230° at 8 KTS
Cloud Levels
  • Clear skies

Oct-23@
03:00 UTC

Oct-23 @ 03:00 UTC

Oct-23@
15:00 UTC

Oct-23 @ 15:00 UTC

FM230300 VRB03KT P6SM SKC

From

From Standard forecast or significant change

Wind
  • Variable at 3 KTS
Cloud Levels
  • Clear skies

Oct-23@
15:00 UTC

Oct-23 @ 15:00 UTC

Oct-23@
18:00 UTC

Oct-23 @ 18:00 UTC

FM231500 05006KT P6SM SKC

From

From Standard forecast or significant change

Wind
  • 050° at 6 KTS
Cloud Levels
  • Clear skies